Time;durP1;ratioP1;P1;durP2;ratioP2;P2;SDS_P1;SDS_P2;PMS_P1;PMS_P2;Temp;Humidity;BMP_temperature;BMP_pressure;BME280_temperature;BME280_humidity;BME280_pressure;Samples;Min_cycle;Max_cycle;Signal;HPM_P1;HPM_P2
2022/01/20 05:25:02;;;;;;;1.30;1.30;;;1.40;99.90;;;;;;5153960;23;20222;-70
2022/01/20 05:27:29;;;;;;;1.20;1.20;;;1.50;99.90;;;;;;4995894;28;20217;-71
2022/01/20 05:29:56;;;;;;;1.05;1.05;;;1.50;99.90;;;;;;4995069;28;20639;-72
2022/01/20 05:32:23;;;;;;;0.98;0.98;;;1.50;99.90;;;;;;4995379;28;20214;-71
2022/01/20 05:34:50;;;;;;;1.40;1.40;;;1.60;99.90;;;;;;4994952;28;20305;-70
2022/01/20 05:37:17;;;;;;;1.05;1.05;;;1.60;99.90;;;;;;4995471;28;20660;-70
2022/01/20 05:39:44;;;;;;;1.25;1.25;;;1.60;99.90;;;;;;4995290;28;20294;-69
2022/01/20 05:42:12;;;;;;;1.02;1.02;;;1.60;99.90;;;;;;4995190;28;20293;-70
2022/01/20 05:44:39;;;;;;;1.02;1.02;;;1.50;99.90;;;;;;4994819;28;20773;-69
2022/01/20 05:47:10;;;;;;;1.00;1.00;;;1.50;99.90;;;;;;4995174;28;20289;-69
2022/01/20 05:49:38;;;;;;;1.10;1.10;;;1.50;99.90;;;;;;4994641;28;20692;-69
2022/01/20 05:52:05;;;;;;;1.00;1.00;;;1.50;99.90;;;;;;4994917;28;20249;-69
2022/01/20 05:54:32;;;;;;;1.20;1.20;;;1.50;99.90;;;;;;4994911;28;20218;-69
2022/01/20 05:56:59;;;;;;;0.90;0.90;;;1.50;99.90;;;;;;4994951;28;20213;-69
2022/01/20 05:59:27;;;;;;;1.00;1.00;;;1.50;99.90;;;;;;4994630;28;20238;-68
2022/01/20 06:01:58;;;;;;;1.00;1.00;;;1.50;99.90;;;;;;4994733;28;20290;-68
2022/01/20 06:04:25;;;;;;;0.90;0.90;;;1.50;99.90;;;;;;4994653;28;20258;-68
2022/01/20 06:06:52;;;;;;;1.15;1.05;;;1.50;99.90;;;;;;4994382;28;20641;-68
2022/01/20 06:09:19;;;;;;;1.10;1.10;;;1.50;99.90;;;;;;4994579;28;20221;-69
2022/01/20 06:11:46;;;;;;;0.93;0.93;;;1.60;99.90;;;;;;4994638;28;20305;-69
2022/01/20 06:14:12;;;;;;;1.10;1.10;;;1.60;99.90;;;;;;4994508;28;20218;-69
2022/01/20 06:16:41;;;;;;;1.00;1.00;;;1.60;99.90;;;;;;4994168;28;20289;-68
2022/01/20 06:19:08;;;;;;;1.00;1.00;;;1.50;99.90;;;;;;4994425;28;20285;-68
2022/01/20 06:21:35;;;;;;;1.02;1.02;;;1.60;99.90;;;;;;4994113;28;20305;-68
2022/01/20 06:24:02;;;;;;;1.00;1.00;;;1.60;99.90;;;;;;4994328;28;20222;-69
2022/01/20 06:26:29;;;;;;;1.00;1.00;;;1.60;99.90;;;;;;4993967;28;20305;-68
2022/01/20 06:28:56;;;;;;;1.17;1.17;;;1.70;99.90;;;;;;4994096;28;20321;-68
2022/01/20 06:31:23;;;;;;;1.02;1.02;;;1.70;99.90;;;;;;4994257;28;20289;-68
2022/01/20 06:33:51;;;;;;;1.05;1.05;;;1.70;99.90;;;;;;4993866;28;20314;-68
2022/01/20 06:36:18;;;;;;;1.00;1.00;;;1.70;99.90;;;;;;4994182;28;20297;-68
2022/01/20 06:38:45;;;;;;;1.02;1.02;;;1.70;99.90;;;;;;4994116;28;20232;-68
2022/01/20 06:41:12;;;;;;;1.00;1.00;;;1.70;99.90;;;;;;4994187;28;20293;-68
2022/01/20 06:43:39;;;;;;;0.98;0.98;;;1.70;99.90;;;;;;4994049;28;20222;-68
2022/01/20 06:46:06;;;;;;;0.90;0.90;;;1.70;99.90;;;;;;4994172;28;20241;-68
2022/01/20 06:48:33;;;;;;;0.80;0.80;;;1.70;99.90;;;;;;4994314;28;20254;-68
2022/01/20 06:51:01;;;;;;;0.93;0.93;;;1.70;99.90;;;;;;4994059;28;20198;-66
2022/01/20 06:53:28;;;;;;;0.90;0.90;;;1.70;99.90;;;;;;4993920;28;20390;-67
2022/01/20 06:55:55;;;;;;;0.82;0.82;;;1.70;99.90;;;;;;4993955;28;20281;-67
2022/01/20 06:58:23;;;;;;;0.90;0.90;;;1.70;99.90;;;;;;4994004;28;20225;-67
2022/01/20 07:00:50;;;;;;;1.00;1.00;;;1.70;99.90;;;;;;4994810;28;20205;-67
2022/01/20 07:03:17;;;;;;;0.70;0.70;;;1.60;99.90;;;;;;4997540;28;20709;-67
2022/01/20 07:05:44;;;;;;;0.80;0.80;;;1.70;99.90;;;;;;4997711;28;20650;-68
2022/01/20 07:08:12;;;;;;;0.90;0.90;;;1.60;99.90;;;;;;4997686;28;20246;-68
2022/01/20 07:10:39;;;;;;;0.98;0.98;;;1.70;99.90;;;;;;4997946;28;20213;-69
2022/01/20 07:13:06;;;;;;;0.80;0.80;;;1.60;99.90;;;;;;4998073;28;20576;-68
2022/01/20 07:15:33;;;;;;;0.80;0.80;;;1.60;99.90;;;;;;4998006;28;20290;-68
2022/01/20 07:18:00;;;;;;;0.70;0.70;;;1.60;99.90;;;;;;4997948;28;20286;-69
2022/01/20 07:20:27;;;;;;;0.80;0.80;;;1.60;99.90;;;;;;4997876;28;20285;-69
2022/01/20 07:22:53;;;;;;;0.68;0.68;;;1.60;99.90;;;;;;4998070;28;20626;-68
2022/01/20 07:25:22;;;;;;;0.82;0.82;;;1.60;99.90;;;;;;4997664;28;20215;-70
2022/01/20 07:27:49;;;;;;;0.73;0.73;;;1.60;99.90;;;;;;4997427;28;20697;-69
2022/01/20 07:30:15;;;;;;;0.82;0.82;;;1.60;99.90;;;;;;4997255;28;20728;-68
2022/01/20 07:32:42;;;;;;;0.80;0.80;;;1.60;99.90;;;;;;4997618;28;20209;-69
2022/01/20 07:35:10;;;;;;;0.70;0.70;;;1.70;99.90;;;;;;4997574;28;20269;-70
2022/01/20 07:37:36;;;;;;;0.80;0.80;;;1.70;99.90;;;;;;4997399;28;20213;-69
2022/01/20 07:40:04;;;;;;;0.68;0.68;;;1.70;99.90;;;;;;4997273;28;20293;-69
2022/01/20 07:42:32;;;;;;;0.70;0.70;;;1.70;99.90;;;;;;4997277;28;20289;-69
2022/01/20 07:44:59;;;;;;;0.90;0.90;;;1.70;99.90;;;;;;4997577;28;20632;-69
2022/01/20 07:47:26;;;;;;;0.90;0.90;;;1.80;99.90;;;;;;4997448;28;20290;-70
2022/01/20 07:49:53;;;;;;;0.90;0.90;;;1.80;99.90;;;;;;4997343;28;20223;-70
2022/01/20 07:52:20;;;;;;;0.75;0.75;;;1.90;99.90;;;;;;4997508;28;20203;-70
2022/01/20 07:54:47;;;;;;;0.90;0.90;;;2.00;99.90;;;;;;4997330;28;20334;-70
2022/01/20 07:57:14;;;;;;;0.98;0.98;;;2.20;99.90;;;;;;4996982;28;20728;-67
2022/01/20 07:59:42;;;;;;;0.93;0.93;;;2.50;99.90;;;;;;4996784;28;20702;-68
2022/01/20 08:02:09;;;;;;;1.00;1.00;;;2.80;99.90;;;;;;4996895;28;20756;-69
2022/01/20 08:04:36;;;;;;;1.00;1.00;;;2.80;99.90;;;;;;4997029;28;20231;-69
2022/01/20 08:07:03;;;;;;;1.05;1.05;;;2.80;99.90;;;;;;4997146;28;20309;-69
2022/01/20 08:09:30;;;;;;;1.00;1.00;;;2.70;99.90;;;;;;4997230;28;20219;-68
2022/01/20 08:11:57;;;;;;;1.17;1.17;;;2.80;99.90;;;;;;4996788;28;20238;-68
2022/01/20 08:14:25;;;;;;;0.98;0.98;;;3.40;99.90;;;;;;4996461;28;20305;-69
2022/01/20 08:16:53;;;;;;;1.20;1.10;;;4.90;99.90;;;;;;4996873;28;20203;-69
2022/01/20 08:19:20;;;;;;;1.00;1.00;;;5.70;99.90;;;;;;4996847;28;20230;-69
2022/01/20 08:21:47;;;;;;;1.00;1.00;;;6.10;99.90;;;;;;4996768;28;20241;-69
2022/01/20 08:24:14;;;;;;;1.23;1.23;;;6.40;99.90;;;;;;4996685;28;20309;-69
2022/01/20 08:26:41;;;;;;;1.50;1.40;;;6.10;99.90;;;;;;4996871;28;20309;-69
2022/01/20 08:29:07;;;;;;;1.30;1.30;;;5.60;99.90;;;;;;4996552;28;20222;-69
2022/01/20 08:31:34;;;;;;;1.17;1.17;;;5.20;99.90;;;;;;4996614;28;20293;-69
2022/01/20 08:34:02;;;;;;;1.00;1.00;;;4.80;99.90;;;;;;4996481;28;20309;-69
2022/01/20 08:36:29;;;;;;;0.93;0.93;;;4.50;99.90;;;;;;4996270;28;20259;-69
2022/01/20 08:38:56;;;;;;;0.85;0.85;;;4.30;99.90;;;;;;4996261;28;20672;-69
2022/01/20 08:41:23;;;;;;;0.90;0.90;;;4.10;99.90;;;;;;4996196;28;20561;-68
2022/01/20 08:43:51;;;;;;;0.90;0.90;;;4.00;99.90;;;;;;4996395;28;20309;-68
2022/01/20 08:46:20;;;;;;;0.80;0.80;;;3.90;99.90;;;;;;4996327;28;20297;-68
2022/01/20 08:48:47;;;;;;;0.75;0.75;;;3.80;99.90;;;;;;4996386;28;20219;-68
2022/01/20 08:51:15;;;;;;;0.88;0.88;;;3.70;99.90;;;;;;4995984;28;20289;-68
2022/01/20 08:53:42;;;;;;;0.90;0.90;;;3.60;99.90;;;;;;4995899;28;20770;-69
2022/01/20 08:56:09;;;;;;;0.90;0.90;;;3.50;99.90;;;;;;4996297;28;20289;-68
2022/01/20 08:58:35;;;;;;;0.82;0.82;;;3.50;99.90;;;;;;4995727;28;20198;-68
2022/01/20 09:01:04;;;;;;;0.70;0.70;;;3.50;99.90;;;;;;4995989;28;20281;-68
2022/01/20 09:03:32;;;;;;;0.90;0.90;;;3.50;99.90;;;;;;4995999;28;20222;-69
2022/01/20 09:05:59;;;;;;;0.85;0.85;;;3.50;99.90;;;;;;4996017;28;20237;-68
2022/01/20 09:08:27;;;;;;;0.88;0.88;;;3.50;99.90;;;;;;4996099;28;20285;-68
2022/01/20 09:10:55;;;;;;;0.90;0.90;;;3.50;99.90;;;;;;4995768;28;20561;-69
2022/01/20 09:16:07;;;;;;;0.80;0.80;;;3.40;99.90;;;;;;4995848;28;20186;-68
2022/01/20 09:18:34;;;;;;;0.98;0.98;;;3.30;99.90;;;;;;4995412;28;20744;-68
2022/01/20 09:21:01;;;;;;;0.70;0.70;;;3.30;99.90;;;;;;4995462;28;20745;-68
2022/01/20 09:23:29;;;;;;;0.90;0.90;;;3.20;99.90;;;;;;4995481;28;20292;-69
2022/01/20 09:25:56;;;;;;;1.02;1.02;;;3.20;99.90;;;;;;4994339;28;20221;-69
2022/01/20 09:28:23;;;;;;;1.13;1.02;;;3.10;99.90;;;;;;4995532;28;20293;-69
2022/01/20 09:30:51;;;;;;;1.95;1.20;;;3.20;99.90;;;;;;4995113;28;20225;-69
2022/01/20 09:33:26;;;;;;;0.80;0.80;;;3.10;99.90;;;;;;4995348;28;20227;-69
2022/01/20 09:35:53;;;;;;;1.20;1.20;;;3.10;99.90;;;;;;4995017;28;20634;-69
2022/01/20 09:38:20;;;;;;;1.42;1.20;;;3.10;99.90;;;;;;4995288;28;20301;-68
2022/01/20 09:40:49;;;;;;;1.30;1.30;;;3.10;99.90;;;;;;4994891;28;20374;-69
2022/01/20 09:43:16;;;;;;;1.30;1.30;;;3.10;99.90;;;;;;4994831;28;20237;-69
2022/01/20 09:45:45;;;;;;;2.28;1.38;;;3.10;99.90;;;;;;4995183;28;20191;-69
2022/01/20 09:48:13;;;;;;;1.13;1.13;;;3.20;99.90;;;;;;4995090;28;20202;-69
2022/01/20 09:50:39;;;;;;;1.30;1.30;;;3.30;99.90;;;;;;4994990;28;20219;-69
2022/01/20 09:53:06;;;;;;;1.38;1.38;;;3.30;99.90;;;;;;4994931;28;20233;-69
2022/01/20 09:55:35;;;;;;;1.95;1.85;;;3.30;99.90;;;;;;4994955;28;20203;-68
2022/01/20 09:58:04;;;;;;;1.65;1.60;;;3.30;99.90;;;;;;4994921;28;20209;-68
2022/01/20 10:00:31;;;;;;;1.58;1.48;;;3.30;99.90;;;;;;4994545;28;20736;-68
2022/01/20 10:03:00;;;;;;;1.83;1.73;;;3.30;99.90;;;;;;4994844;28;20290;-69
2022/01/20 10:05:29;;;;;;;2.67;2.50;;;3.30;99.90;;;;;;4994953;28;20202;-68
2022/01/20 10:08:05;;;;;;;1.80;1.70;;;3.30;99.90;;;;;;4994492;28;20209;-68
2022/01/20 10:10:45;;;;;;;2.00;1.90;;;3.20;99.90;;;;;;4994377;28;20749;-69
2022/01/20 10:13:14;;;;;;;2.15;2.05;;;3.30;99.90;;;;;;4994656;28;20187;-68
2022/01/20 10:15:42;;;;;;;2.03;1.83;;;3.20;99.90;;;;;;4994788;28;20285;-68
2022/01/20 10:18:11;;;;;;;1.33;1.33;;;3.30;99.90;;;;;;4994603;28;20206;-68
2022/01/20 10:20:50;;;;;;;1.77;1.70;;;3.30;99.90;;;;;;4994413;28;20289;-68
2022/01/20 10:23:31;;;;;;;1.90;1.70;;;3.30;99.90;;;;;;4994509;28;20226;-68
2022/01/20 10:26:08;;;;;;;2.58;1.50;;;3.50;99.90;;;;;;4994102;28;20220;-68
2022/01/20 10:29:01;;;;;;;1.85;1.40;;;3.50;99.90;;;;;;4994517;28;20273;-68
2022/01/20 10:31:34;;;;;;;1.52;1.50;;;3.60;99.90;;;;;;4980152;28;20209;-69
2022/01/20 10:34:01;;;;;;;1.27;1.20;;;3.60;99.90;;;;;;4994013;28;20786;-68
2022/01/20 10:36:28;;;;;;;1.27;1.27;;;3.70;99.90;;;;;;4993975;28;20293;-68
2022/01/20 10:38:58;;;;;;;2.40;1.40;;;3.80;99.90;;;;;;4994282;28;20293;-68
2022/01/20 10:41:29;;;;;;;1.35;1.00;;;3.80;99.90;;;;;;4993959;28;20739;-68
2022/01/20 10:44:09;;;;;;;1.10;1.05;;;3.90;99.90;;;;;;4994193;28;20222;-68
2022/01/20 10:46:50;;;;;;;1.50;1.38;;;4.00;99.90;;;;;;4994298;28;20182;-68
2022/01/20 10:49:18;;;;;;;1.13;1.13;;;4.10;99.90;;;;;;4993788;28;20705;-68
2022/01/20 10:51:55;;;;;;;1.67;1.23;;;4.30;99.90;;;;;;4994111;28;20301;-68
2022/01/20 10:54:22;;;;;;;1.02;1.02;;;4.50;99.90;;;;;;4994241;28;20304;-68
2022/01/20 10:56:51;;;;;;;1.58;1.08;;;4.60;99.90;;;;;;4993963;28;20301;-68
2022/01/20 10:59:20;;;;;;;1.00;1.00;;;4.60;99.90;;;;;;4993863;28;20302;-68
2022/01/20 11:01:59;;;;;;;1.30;1.15;;;4.60;99.90;;;;;;4993747;28;20678;-68
2022/01/20 11:04:26;;;;;;;1.80;1.50;;;4.50;99.90;;;;;;4993915;28;20261;-69
2022/01/20 11:06:55;;;;;;;1.92;1.20;;;4.40;99.90;;;;;;4993378;28;20285;-69
2022/01/20 11:09:24;;;;;;;2.85;1.63;;;4.30;99.90;;;;;;4993573;28;20198;-69
2022/01/20 11:11:52;;;;;;;1.65;1.20;;;4.10;99.90;;;;;;4993903;28;20205;-69
2022/01/20 11:14:20;;;;;;;2.03;1.30;;;3.90;99.90;;;;;;4993506;28;20252;-69
2022/01/20 11:16:47;;;;;;;1.50;1.40;;;3.80;99.90;;;;;;4993808;28;20217;-69
2022/01/20 11:19:16;;;;;;;2.13;1.45;;;3.80;99.90;;;;;;4993807;28;20301;-69
2022/01/20 11:21:45;;;;;;;2.00;1.25;;;3.80;99.90;;;;;;4993871;28;20203;-69
2022/01/20 11:24:18;;;;;;;5.53;1.33;;;3.80;99.90;;;;;;4993202;28;20705;-69
2022/01/20 11:26:53;;;;;;;4.57;1.05;;;3.80;99.90;;;;;;4993888;28;20194;-69
2022/01/20 11:29:22;;;;;;;4.18;1.65;;;3.80;99.90;;;;;;4993788;28;20289;-69
2022/01/20 11:31:50;;;;;;;1.88;1.50;;;3.70;99.90;;;;;;4994059;28;20298;-71
2022/01/20 11:34:20;;;;;;;1.60;1.48;;;3.80;99.90;;;;;;4993568;28;20773;-71
2022/01/20 11:36:48;;;;;;;2.15;1.08;;;3.80;99.90;;;;;;4993560;28;20644;-71
2022/01/20 11:39:18;;;;;;;1.63;1.02;;;3.90;99.90;;;;;;4993813;28;20289;-71
2022/01/20 11:41:49;;;;;;;1.15;1.13;;;3.90;99.90;;;;;;5017208;23;20222;-71
2022/01/20 11:44:17;;;;;;;1.13;1.10;;;4.00;99.90;;;;;;4993914;28;20218;-71
2022/01/20 11:46:50;;;;;;;1.77;1.50;;;4.00;99.90;;;;;;4993966;28;20261;-71
2022/01/20 11:49:20;;;;;;;1.90;1.40;;;4.10;99.90;;;;;;4996802;28;20226;-72
2022/01/20 11:51:49;;;;;;;2.80;1.30;;;4.10;99.90;;;;;;4997118;28;20250;-72
2022/01/20 11:54:27;;;;;;;4.38;1.13;;;4.10;99.90;;;;;;4997062;28;20198;-70
2022/01/20 11:57:08;;;;;;;2.78;1.25;;;4.20;99.90;;;;;;4997553;28;20187;-72
2022/01/20 11:59:41;;;;;;;1.85;1.40;;;4.30;99.90;;;;;;4997462;28;20195;-72
2022/01/20 12:02:10;;;;;;;2.00;1.40;;;4.30;99.90;;;;;;4997243;28;20261;-71
2022/01/20 12:04:38;;;;;;;0.82;0.80;;;4.40;99.90;;;;;;4997151;28;20602;-72
2022/01/20 12:07:06;;;;;;;1.15;1.15;;;4.40;99.90;;;;;;4997134;28;20249;-72
2022/01/20 12:09:35;;;;;;;1.20;1.10;;;4.40;99.90;;;;;;4996830;28;20271;-71
2022/01/20 12:12:04;;;;;;;1.13;0.80;;;4.60;99.90;;;;;;4996734;28;20218;-71
2022/01/20 12:14:35;;;;;;;1.63;1.10;;;4.60;99.90;;;;;;4996839;28;20234;-71
2022/01/20 12:17:06;;;;;;;1.40;1.30;;;4.70;99.90;;;;;;4996966;28;20191;-71
2022/01/20 12:19:34;;;;;;;1.27;1.17;;;4.60;99.90;;;;;;4996612;28;20195;-71
2022/01/20 12:22:04;;;;;;;1.33;1.02;;;4.60;99.90;;;;;;4996553;28;20629;-71
2022/01/20 12:24:31;;;;;;;1.95;1.30;;;4.50;99.90;;;;;;4996913;28;20262;-71
2022/01/20 12:26:58;;;;;;;1.33;1.10;;;4.40;99.90;;;;;;4997604;28;20293;-71
2022/01/20 12:29:35;;;;;;;1.45;0.93;;;4.40;99.90;;;;;;4997766;28;20278;-72
2022/01/20 12:32:12;;;;;;;1.10;1.08;;;4.40;99.90;;;;;;4998081;28;20229;-71
2022/01/20 12:34:41;;;;;;;2.72;1.15;;;4.40;99.90;;;;;;4999424;28;20277;-71
2022/01/20 12:37:10;;;;;;;2.55;1.00;;;4.40;99.90;;;;;;5000124;28;20202;-70
2022/01/20 12:39:41;;;;;;;5.32;1.10;;;4.30;99.90;;;;;;5000306;28;20285;-71
2022/01/20 12:42:10;;;;;;;1.73;1.20;;;4.30;99.90;;;;;;4999450;28;20321;-71
2022/01/20 12:44:47;;;;;;;1.55;1.08;;;4.20;99.90;;;;;;5000672;28;20207;-72
2022/01/20 12:47:15;;;;;;;0.95;0.95;;;4.20;99.90;;;;;;4999015;28;20620;-72
2022/01/20 12:49:44;;;;;;;2.70;1.17;;;4.20;99.90;;;;;;5000085;28;20206;-71
2022/01/20 12:52:12;;;;;;;1.13;1.00;;;4.20;99.90;;;;;;5000513;28;20652;-72
2022/01/20 12:54:39;;;;;;;1.40;1.30;;;4.30;99.90;;;;;;5000713;28;20210;-72
2022/01/20 12:57:11;;;;;;;1.92;1.15;;;4.50;99.90;;;;;;4999918;28;20670;-71
2022/01/20 12:59:41;;;;;;;1.85;1.00;;;4.60;99.90;;;;;;4999321;28;20653;-70
2022/01/20 13:02:12;;;;;;;0.90;0.90;;;4.60;99.90;;;;;;4999999;28;20223;-71
2022/01/20 13:04:40;;;;;;;3.42;1.15;;;4.70;99.90;;;;;;4999423;28;20268;-70
2022/01/20 13:07:13;;;;;;;1.02;0.93;;;4.80;99.90;;;;;;4999250;28;20661;-69
2022/01/20 13:09:43;;;;;;;1.10;0.95;;;4.80;99.90;;;;;;5000245;28;20187;-69
2022/01/20 13:12:11;;;;;;;2.42;0.80;;;4.90;99.90;;;;;;4999018;28;20242;-68
2022/01/20 13:14:46;;;;;;;5.78;1.42;;;4.90;99.90;;;;;;5000152;28;20194;-69
2022/01/20 13:17:19;;;;;;;3.50;1.35;;;4.80;99.90;;;;;;5000561;28;20221;-69
2022/01/20 13:19:48;;;;;;;0.90;0.90;;;4.80;99.90;;;;;;5000059;28;20187;-70
2022/01/20 13:22:27;;;;;;;0.90;0.90;;;4.80;99.90;;;;;;5000355;28;20229;-69
2022/01/20 13:24:55;;;;;;;2.55;1.05;;;4.70;99.90;;;;;;4999692;28;20229;-69
2022/01/20 13:27:22;;;;;;;2.45;0.98;;;4.70;99.90;;;;;;4999874;28;20613;-69
2022/01/20 13:29:50;;;;;;;1.30;1.20;;;4.70;99.90;;;;;;4998663;28;20213;-69
2022/01/20 13:32:18;;;;;;;1.42;1.20;;;4.70;99.90;;;;;;4998257;28;20317;-69
2022/01/20 13:34:56;;;;;;;1.20;1.10;;;4.60;99.90;;;;;;4998355;28;20203;-68
2022/01/20 13:37:25;;;;;;;2.78;1.30;;;4.60;99.90;;;;;;4998840;28;20630;-68
2022/01/20 13:39:56;;;;;;;2.78;1.08;;;4.50;99.90;;;;;;4999042;28;20202;-69
2022/01/20 13:42:32;;;;;;;3.97;1.58;;;4.50;99.90;;;;;;4998218;28;20227;-70
2022/01/20 13:45:12;;;;;;;1.10;1.10;;;4.40;99.90;;;;;;4998384;28;20634;-68
2022/01/20 13:47:51;;;;;;;1.52;1.00;;;4.40;99.90;;;;;;4999311;28;20261;-68
2022/01/20 13:50:21;;;;;;;1.02;0.90;;;4.40;99.90;;;;;;4998585;28;20704;-70
2022/01/20 13:52:51;;;;;;;1.40;1.30;;;4.30;99.90;;;;;;4997999;28;20190;-69
2022/01/20 13:55:24;;;;;;;1.67;0.93;;;4.20;99.90;;;;;;4997214;28;20218;-69
2022/01/20 13:57:52;;;;;;;1.00;1.00;;;4.20;99.90;;;;;;4997626;28;20249;-69
2022/01/20 14:00:22;;;;;;;1.00;1.00;;;4.10;99.90;;;;;;4998314;28;20202;-69
2022/01/20 14:02:50;;;;;;;1.02;1.02;;;4.00;99.90;;;;;;4997058;28;20226;-69
2022/01/20 14:05:18;;;;;;;2.20;1.13;;;3.90;99.90;;;;;;4997978;28;20206;-68
2022/01/20 14:07:47;;;;;;;1.77;1.20;;;3.80;99.90;;;;;;4997308;28;20650;-68
2022/01/20 14:10:16;;;;;;;2.60;1.38;;;3.70;99.90;;;;;;4997276;28;20222;-68
2022/01/20 14:12:44;;;;;;;0.90;0.90;;;3.70;99.90;;;;;;4997973;28;20199;-68
2022/01/20 14:15:11;;;;;;;0.82;0.82;;;3.60;99.90;;;;;;4998008;28;20207;-68
2022/01/20 14:17:39;;;;;;;0.80;0.80;;;3.60;99.90;;;;;;4994961;28;20571;-68
2022/01/20 14:20:10;;;;;;;1.95;1.00;;;3.60;99.90;;;;;;4994130;28;20662;-68
2022/01/20 14:22:37;;;;;;;1.45;1.08;;;3.60;99.90;;;;;;4994498;28;20183;-68
2022/01/20 14:25:07;;;;;;;1.00;1.00;;;3.60;99.90;;;;;;4994416;28;20209;-68
2022/01/20 14:27:35;;;;;;;1.10;1.10;;;3.60;99.90;;;;;;4994045;28;20542;-68
2022/01/20 14:30:03;;;;;;;1.65;0.82;;;3.60;99.90;;;;;;4994336;28;20216;-68
2022/01/20 14:32:29;;;;;;;0.90;0.90;;;3.60;99.90;;;;;;4994172;28;20258;-68
2022/01/20 14:34:56;;;;;;;0.90;0.90;;;3.60;99.90;;;;;;4993883;28;20234;-68
2022/01/20 14:37:23;;;;;;;1.13;1.05;;;3.50;99.90;;;;;;4994076;28;20207;-68
2022/01/20 14:39:50;;;;;;;1.27;1.00;;;3.50;99.90;;;;;;4994026;28;20293;-68
2022/01/20 14:42:17;;;;;;;1.40;1.30;;;3.40;99.90;;;;;;4993620;28;20226;-68
2022/01/20 14:44:47;;;;;;;1.27;1.27;;;3.40;99.90;;;;;;4993760;28;20222;-68
2022/01/20 14:47:15;;;;;;;1.15;1.15;;;3.40;99.90;;;;;;4993943;28;20202;-68
2022/01/20 14:49:42;;;;;;;1.08;1.00;;;3.40;99.90;;;;;;4994861;28;20202;-68
2022/01/20 14:52:09;;;;;;;1.33;1.20;;;3.40;99.90;;;;;;4994083;28;20226;-68
2022/01/20 14:54:36;;;;;;;1.48;1.38;;;3.40;99.90;;;;;;4994012;28;20293;-68
2022/01/20 14:57:04;;;;;;;2.13;1.90;;;3.40;99.90;;;;;;4994655;28;20680;-68
2022/01/20 14:59:33;;;;;;;1.65;1.35;;;3.40;99.90;;;;;;4996684;28;20238;-68
2022/01/20 15:02:02;;;;;;;1.85;1.10;;;3.30;99.90;;;;;;4996663;28;20343;-68
2022/01/20 15:04:29;;;;;;;1.10;1.10;;;3.20;99.90;;;;;;4997715;28;20210;-68
2022/01/20 15:06:56;;;;;;;1.23;1.10;;;3.10;99.90;;;;;;4997366;28;20205;-68
2022/01/20 15:09:23;;;;;;;1.30;1.20;;;3.00;99.90;;;;;;4997257;28;20564;-67
2022/01/20 15:11:51;;;;;;;1.02;1.00;;;3.00;99.90;;;;;;4998351;28;20223;-68
2022/01/20 15:14:20;;;;;;;1.02;1.02;;;2.90;99.90;;;;;;4997634;28;20203;-68
2022/01/20 15:16:47;;;;;;;1.20;1.20;;;2.90;99.90;;;;;;4993692;28;20202;-68
2022/01/20 15:19:15;;;;;;;1.25;1.20;;;2.80;99.90;;;;;;4993238;28;20298;-68
2022/01/20 15:21:43;;;;;;;1.30;1.20;;;2.80;99.90;;;;;;4994237;28;20261;-68
2022/01/20 15:24:11;;;;;;;1.27;1.27;;;2.70;99.90;;;;;;4997271;28;20195;-68
2022/01/20 15:26:39;;;;;;;1.40;1.40;;;2.70;99.90;;;;;;4997643;28;20298;-68
2022/01/20 15:29:06;;;;;;;1.05;1.00;;;2.70;99.90;;;;;;4997406;28;20241;-68
2022/01/20 15:31:36;;;;;;;1.02;1.02;;;2.70;99.90;;;;;;4997720;28;20266;-68
2022/01/20 15:34:04;;;;;;;1.55;1.10;;;2.70;99.90;;;;;;4997454;28;20210;-69
2022/01/20 15:36:33;;;;;;;1.38;1.38;;;2.70;99.90;;;;;;4997538;28;20253;-68
2022/01/20 15:39:01;;;;;;;1.50;1.40;;;2.70;99.90;;;;;;4997276;28;20221;-68
2022/01/20 15:41:28;;;;;;;1.33;1.20;;;2.70;99.90;;;;;;4997127;28;20227;-69
2022/01/20 15:43:55;;;;;;;1.20;1.20;;;2.70;99.90;;;;;;4997257;28;20206;-69
2022/01/20 15:46:22;;;;;;;0.93;0.93;;;2.70;99.90;;;;;;4997488;28;20279;-68
2022/01/20 15:48:49;;;;;;;2.63;1.25;;;2.70;99.90;;;;;;4997191;28;20230;-68
2022/01/20 15:51:16;;;;;;;0.90;0.90;;;2.70;99.90;;;;;;4996908;28;20652;-68
2022/01/20 15:53:44;;;;;;;1.17;1.17;;;2.70;99.90;;;;;;4997028;28;20299;-68
2022/01/20 15:56:11;;;;;;;1.13;1.13;;;2.70;99.90;;;;;;4997044;28;20609;-68
2022/01/20 15:58:38;;;;;;;1.10;1.10;;;2.60;99.90;;;;;;4996662;28;20678;-68
2022/01/20 16:01:08;;;;;;;2.42;1.27;;;2.60;99.90;;;;;;4996632;28;20257;-68
2022/01/20 16:03:35;;;;;;;1.10;1.10;;;2.60;99.90;;;;;;4996898;28;20557;-68
2022/01/20 16:06:03;;;;;;;1.23;1.23;;;2.50;99.90;;;;;;4996483;28;20230;-68
2022/01/20 16:08:29;;;;;;;1.42;1.30;;;2.50;99.90;;;;;;4996573;28;20565;-68
2022/01/20 16:10:58;;;;;;;1.27;1.17;;;2.50;99.90;;;;;;4996697;28;20633;-71
2022/01/20 16:13:25;;;;;;;1.60;1.48;;;2.50;99.90;;;;;;4997358;28;20317;-70
2022/01/20 16:15:51;;;;;;;1.85;1.75;;;2.50;99.90;;;;;;4996829;28;20230;-69
2022/01/20 16:18:20;;;;;;;1.40;1.40;;;2.60;99.90;;;;;;4996528;28;20290;-70
2022/01/20 16:20:48;;;;;;;1.80;1.73;;;2.60;99.90;;;;;;4996317;28;20222;-69
2022/01/20 16:23:15;;;;;;;1.77;1.40;;;2.50;99.90;;;;;;4996659;28;20293;-69
2022/01/20 16:25:42;;;;;;;2.17;2.08;;;2.40;99.90;;;;;;4996628;28;20209;-69
2022/01/20 16:28:11;;;;;;;1.42;1.35;;;2.40;99.90;;;;;;4996533;28;20234;-68
2022/01/20 16:30:38;;;;;;;2.13;1.73;;;2.30;99.90;;;;;;4996446;28;20310;-68
2022/01/20 16:33:05;;;;;;;1.92;1.60;;;2.30;99.90;;;;;;4996374;28;20250;-67
2022/01/20 16:35:33;;;;;;;3.35;1.23;;;2.10;99.90;;;;;;4995835;28;20567;-68
2022/01/20 16:38:00;;;;;;;1.40;1.40;;;1.90;99.90;;;;;;4996323;28;20203;-68
2022/01/20 16:40:28;;;;;;;1.08;1.08;;;1.70;99.90;;;;;;4995821;28;20206;-68
2022/01/20 16:42:55;;;;;;;1.77;1.23;;;1.50;99.90;;;;;;4996236;28;20194;-68
2022/01/20 16:45:24;;;;;;;1.65;1.30;;;1.30;99.90;;;;;;4996308;28;20289;-68
2022/01/20 16:47:51;;;;;;;3.55;1.40;;;1.20;99.90;;;;;;4996623;28;20286;-69
2022/01/20 16:50:20;;;;;;;1.45;1.30;;;1.10;99.90;;;;;;4996061;28;20693;-70
2022/01/20 16:52:47;;;;;;;1.42;1.00;;;1.00;99.90;;;;;;4996138;28;20310;-70
2022/01/20 16:55:15;;;;;;;1.45;1.35;;;0.90;99.90;;;;;;4995666;28;20740;-70
2022/01/20 16:57:42;;;;;;;1.00;1.00;;;0.90;99.90;;;;;;4995953;28;20309;-70
2022/01/20 17:00:12;;;;;;;1.30;1.30;;;0.80;99.90;;;;;;4995439;28;20634;-70
2022/01/20 17:02:50;;;;;;;1.17;1.17;;;0.90;99.90;;;;;;4995835;28;20304;-69
2022/01/20 17:05:18;;;;;;;1.77;1.45;;;0.80;99.90;;;;;;4995724;28;20190;-69
2022/01/20 17:07:45;;;;;;;1.17;1.13;;;0.80;99.90;;;;;;4995424;28;20322;-69
2022/01/20 17:10:12;;;;;;;1.20;1.20;;;0.80;99.90;;;;;;4995403;28;20198;-69
2022/01/20 17:12:38;;;;;;;2.25;1.13;;;0.90;99.90;;;;;;4995565;28;20229;-69
2022/01/20 17:15:06;;;;;;;1.00;1.00;;;0.90;99.90;;;;;;4996231;28;20298;-69
2022/01/20 17:17:33;;;;;;;1.00;1.00;;;0.90;99.90;;;;;;4995568;28;20703;-69
2022/01/20 17:20:01;;;;;;;1.00;1.00;;;0.90;99.90;;;;;;4995540;28;20294;-69
2022/01/20 17:22:28;;;;;;;2.30;0.93;;;1.00;99.90;;;;;;4995524;28;20625;-69
2022/01/20 17:24:55;;;;;;;1.08;1.08;;;1.00;99.90;;;;;;4995529;28;20210;-68
2022/01/20 17:27:22;;;;;;;2.15;1.05;;;0.90;99.90;;;;;;4995253;28;20635;-68
2022/01/20 17:29:49;;;;;;;1.10;1.10;;;1.00;99.90;;;;;;4995538;28;20269;-69
2022/01/20 17:32:16;;;;;;;0.85;0.85;;;1.00;99.90;;;;;;4995286;28;20230;-69
2022/01/20 17:34:43;;;;;;;1.25;1.10;;;1.00;99.90;;;;;;4995064;28;20183;-69
2022/01/20 17:37:11;;;;;;;0.80;0.80;;;1.00;99.90;;;;;;4994985;28;20565;-69
2022/01/20 17:39:38;;;;;;;1.60;1.23;;;1.00;99.90;;;;;;4995410;28;20245;-70
2022/01/20 17:42:05;;;;;;;1.10;1.00;;;1.00;99.90;;;;;;4997442;28;20237;-70
2022/01/20 17:44:32;;;;;;;1.00;1.00;;;0.90;99.90;;;;;;4995014;28;20294;-70
2022/01/20 17:47:01;;;;;;;1.02;1.02;;;0.90;99.90;;;;;;4994368;28;20229;-70
2022/01/20 17:49:29;;;;;;;1.08;1.08;;;0.90;99.90;;;;;;4995403;28;20202;-70
2022/01/20 17:51:56;;;;;;;2.40;1.60;;;0.90;99.90;;;;;;4995115;28;20233;-71
2022/01/20 17:54:24;;;;;;;4.60;1.20;;;0.90;99.90;;;;;;4995246;28;20253;-71
2022/01/20 17:56:52;;;;;;;1.40;1.30;;;0.90;99.90;;;;;;4998850;28;20281;-70
2022/01/20 17:59:20;;;;;;;2.42;1.23;;;0.80;99.90;;;;;;4999189;28;20190;-70
2022/01/20 18:01:48;;;;;;;1.13;1.13;;;0.80;99.90;;;;;;5000082;28;20230;-69
2022/01/20 18:04:16;;;;;;;1.48;1.40;;;0.80;99.90;;;;;;4998561;28;20700;-70
2022/01/20 18:06:43;;;;;;;2.03;1.40;;;0.80;99.90;;;;;;4997224;28;20265;-72
2022/01/20 18:09:11;;;;;;;1.70;1.60;;;0.80;99.90;;;;;;4999218;28;20284;-71
2022/01/20 18:11:40;;;;;;;2.00;1.55;;;0.70;99.90;;;;;;4998307;28;20226;-70
2022/01/20 18:14:08;;;;;;;1.77;1.63;;;0.70;99.90;;;;;;4998311;28;20198;-71
2022/01/20 18:16:36;;;;;;;1.95;1.65;;;0.70;99.90;;;;;;4998447;28;20678;-70
2022/01/20 18:19:04;;;;;;;1.48;1.48;;;0.70;99.90;;;;;;4996703;28;20209;-70
2022/01/20 18:21:31;;;;;;;1.60;1.60;;;0.70;99.90;;;;;;4996831;28;20327;-71
2022/01/20 18:23:59;;;;;;;2.50;1.85;;;0.70;99.90;;;;;;4997861;28;20206;-70
2022/01/20 18:26:27;;;;;;;2.95;2.47;;;0.70;99.90;;;;;;4994728;28;20202;-72
2022/01/20 18:28:56;;;;;;;5.88;3.30;;;0.70;99.90;;;;;;4994383;28;20203;-71
2022/01/20 18:31:23;;;;;;;6.50;3.25;;;0.70;99.90;;;;;;4994204;28;20737;-71